Dubois, Idaho
Current Conditions -  °F | °C
As of 1:53 PM on Sunday 21 Dec 2014 (Local Time) from KRXE Reporting Station
Clear Clear  
Wind Chill: 34°   Ceiling: Unl
Heat Index: 42°   Visibility: 10mi
Dew Point: 37°   Wind: 17mph
Humidity: 82%   Direction: 260°W
Pressure: 29.71"   Gusts: NA
Location:  44.18°N, 112.23°W
Report Text: KRXE 212053Z AUTO 26015KT 10SM CLR 06/03 A2971 RMK AO2 PK WND 26026/2019 SLP066 T00560028 55003
Loading
Personal Weather Stations






























Interactive Weather Map New forecast layout! Learn more

10-Day Weather Forecast

Advertisements
Track Severe Weather on mobile